Bryce Canyon, UT

12:28 AM MDT on September 17, 2014 (GMT -0600)
Page Municipal | Change Station
CLOSE
Current Station
Airport
Location: Page,
Elevation: 4308 ft
Nearby Weather Stations

Elev 4308 ft 36.92 °N, 111.45 °W | Updated 35 minutes ago

Mostly Cloudy
Mostly Cloudy
76 °F
Feels Like 76 °F
N
12
Wind Variable Wind from SW
Gusts 18 mph

Today
High -- | Low -- °F
--% Chance of Precip.
Yesterday
High -- | Low -- °F
Precip. -- in
7:12 AM 7:33 PM
Last Quarter, 39% visible
Pressure 29.86 in
Visibility 10.0 miles
Clouds Clear
Dew Point 55 °F
Humidity 48%
Rainfall 0.00 in
Snow Depth Not available.
UV 0 out of 12
Pollen 6.20 out of 12
Air Quality Not available.
Flu Activity Not available.
METAR KPGA 170553Z AUTO 22010G16KT 10SM CLR 24/13 A3006 RMK AO2 SLP109 T02440128 10311 20244 50010

More Conditions Fewer Conditions

Pressure 29.86 in
Visibility 10.0 miles
Clouds Clear
Dew Point 55 °F
Humidity 48%
Rainfall 0.00 in
Snow Depth Not available.
UV 0 out of 12
Pollen 6.20 out of 12
Air Quality Not available.
Flu Activity Not available.
METAR KPGA 170553Z AUTO 22010G16KT 10SM CLR 24/13 A3006 RMK AO2 SLP109 T02440128 10311 20244 50010

More Conditions Fewer Conditions

10-Day Weather Forecast

Almanac

Astronomy

Sep. 17, 2014 Rise Set
Actual Time 7:12 AM MDT 7:33 PM MDT
Civil Twilight 6:46 AM MDT 7:59 PM MDT
Nautical Twilight 6:15 AM MDT 8:30 PM MDT
Astronomical Twilight 5:43 AM MDT 9:01 PM MDT
Moon 1:20 AM MDT 3:41 PM MDT
Length of Visible Light 13h 13m
Length of Day
12h 20m
Tomorrow will be 2m 25s shorter.
Last Quarter, 39% of the Moon is Illuminated
Today
Last Quarter
Sep 24
New
Oct 1
First Quarter
Oct 8
Full
Oct 15
Last Quarter

Today's Extremes

State Highs State Lows

Community

WunderPhotos

Upload Photos

1,753,970 photos uploaded!

Nearby

Snow Depth

Station Depth Elevation
King's Cabin 0 in 8730 ft
Brighton 0 in 8750 ft
Chalk Creek #1 0 in 9100 ft
Trial Lake 1 in 9960 ft
Lakefork #1 2 in 10100 ft

Earthquake Activity

City Distance Mag. Time & Date
No recent earthquake activity has been reported nearby.
Minimum magnitude displayed is 2.5.

Coastal Water Temperatures

Place Temperature
No Stations Reporting

Nearby Weather Stations